sensor_id;sensor_type;location;lat;lon;timestamp;temperature;humidity
2465;DHT22;1244;54.326;10.074;2023-04-15T00:02:17;7.50;99.90
2465;DHT22;1244;54.326;10.074;2023-04-15T00:04:47;7.50;99.90
2465;DHT22;1244;54.326;10.074;2023-04-15T00:07:13;7.50;99.90
2465;DHT22;1244;54.326;10.074;2023-04-15T00:09:40;7.50;99.90
2465;DHT22;1244;54.326;10.074;2023-04-15T00:12:06;7.60;99.90
2465;DHT22;1244;54.326;10.074;2023-04-15T00:14:34;7.50;99.90
2465;DHT22;1244;54.326;10.074;2023-04-15T00:17:01;7.60;99.90
2465;DHT22;1244;54.326;10.074;2023-04-15T00:19:26;7.60;99.90
2465;DHT22;1244;54.326;10.074;2023-04-15T00:21:52;7.60;99.90
2465;DHT22;1244;54.326;10.074;2023-04-15T00:24:17;7.50;99.90
2465;DHT22;1244;54.326;10.074;2023-04-15T00:26:43;7.60;99.90
2465;DHT22;1244;54.326;10.074;2023-04-15T00:29:08;7.60;99.90
2465;DHT22;1244;54.326;10.074;2023-04-15T00:31:34;7.50;99.90
2465;DHT22;1244;54.326;10.074;2023-04-15T00:34:00;7.60;99.90
2465;DHT22;1244;54.326;10.074;2023-04-15T00:36:26;7.60;99.90
2465;DHT22;1244;54.326;10.074;2023-04-15T00:38:52;7.60;99.90
2465;DHT22;1244;54.326;10.074;2023-04-15T00:41:18;7.60;99.90
2465;DHT22;1244;54.326;10.074;2023-04-15T00:43:43;7.50;99.90
2465;DHT22;1244;54.326;10.074;2023-04-15T00:46:12;7.50;99.90
2465;DHT22;1244;54.326;10.074;2023-04-15T00:48:40;7.50;99.90
2465;DHT22;1244;54.326;10.074;2023-04-15T00:51:06;7.50;99.90
2465;DHT22;1244;54.326;10.074;2023-04-15T00:53:32;7.50;99.90
2465;DHT22;1244;54.326;10.074;2023-04-15T00:55:58;7.60;99.90
2465;DHT22;1244;54.326;10.074;2023-04-15T00:58:24;7.60;99.90
2465;DHT22;1244;54.326;10.074;2023-04-15T01:00:50;7.60;99.90
2465;DHT22;1244;54.326;10.074;2023-04-15T01:03:18;7.50;99.90
2465;DHT22;1244;54.326;10.074;2023-04-15T01:05:44;7.50;99.90
2465;DHT22;1244;54.326;10.074;2023-04-15T01:08:10;7.50;99.90
2465;DHT22;1244;54.326;10.074;2023-04-15T01:10:36;7.40;99.90
2465;DHT22;1244;54.326;10.074;2023-04-15T01:13:02;7.40;99.90
2465;DHT22;1244;54.326;10.074;2023-04-15T01:15:28;7.50;99.90
2465;DHT22;1244;54.326;10.074;2023-04-15T01:17:58;7.40;99.90
2465;DHT22;1244;54.326;10.074;2023-04-15T01:20:24;7.40;99.90
2465;DHT22;1244;54.326;10.074;2023-04-15T01:22:50;7.30;99.90
2465;DHT22;1244;54.326;10.074;2023-04-15T01:25:18;7.40;99.90
2465;DHT22;1244;54.326;10.074;2023-04-15T01:27:44;7.40;99.90
2465;DHT22;1244;54.326;10.074;2023-04-15T01:30:10;7.40;99.90
2465;DHT22;1244;54.326;10.074;2023-04-15T01:32:36;7.60;99.90
2465;DHT22;1244;54.326;10.074;2023-04-15T01:35:02;7.50;99.90
2465;DHT22;1244;54.326;10.074;2023-04-15T01:37:28;7.60;99.90
2465;DHT22;1244;54.326;10.074;2023-04-15T01:39:53;7.60;99.90
2465;DHT22;1244;54.326;10.074;2023-04-15T01:42:20;7.50;99.90
2465;DHT22;1244;54.326;10.074;2023-04-15T01:44:46;7.50;99.90
2465;DHT22;1244;54.326;10.074;2023-04-15T01:47:11;7.50;99.90
2465;DHT22;1244;54.326;10.074;2023-04-15T01:49:37;7.60;99.90
2465;DHT22;1244;54.326;10.074;2023-04-15T01:52:02;7.40;99.90
2465;DHT22;1244;54.326;10.074;2023-04-15T01:54:28;7.50;99.90
2465;DHT22;1244;54.326;10.074;2023-04-15T01:56:54;7.50;99.90
2465;DHT22;1244;54.326;10.074;2023-04-15T01:59:19;7.50;99.90
2465;DHT22;1244;54.326;10.074;2023-04-15T02:01:45;7.50;99.90
2465;DHT22;1244;54.326;10.074;2023-04-15T02:04:10;7.60;99.90
2465;DHT22;1244;54.326;10.074;2023-04-15T02:06:44;7.60;99.90
2465;DHT22;1244;54.326;10.074;2023-04-15T02:09:10;7.60;99.90
2465;DHT22;1244;54.326;10.074;2023-04-15T02:11:36;7.60;99.90
2465;DHT22;1244;54.326;10.074;2023-04-15T02:14:02;7.60;99.90
2465;DHT22;1244;54.326;10.074;2023-04-15T02:16:31;7.60;99.90
2465;DHT22;1244;54.326;10.074;2023-04-15T02:18:58;7.60;99.90
2465;DHT22;1244;54.326;10.074;2023-04-15T02:21:25;7.60;99.90
2465;DHT22;1244;54.326;10.074;2023-04-15T02:23:51;7.60;99.90
2465;DHT22;1244;54.326;10.074;2023-04-15T02:26:18;7.60;99.90
2465;DHT22;1244;54.326;10.074;2023-04-15T02:28:43;7.70;99.90
2465;DHT22;1244;54.326;10.074;2023-04-15T02:31:09;7.60;99.90
2465;DHT22;1244;54.326;10.074;2023-04-15T02:33:35;7.60;99.90
2465;DHT22;1244;54.326;10.074;2023-04-15T02:36:02;7.70;99.90
2465;DHT22;1244;54.326;10.074;2023-04-15T02:38:27;7.60;99.90
2465;DHT22;1244;54.326;10.074;2023-04-15T02:40:53;7.60;99.90
2465;DHT22;1244;54.326;10.074;2023-04-15T02:43:18;7.60;99.90
2465;DHT22;1244;54.326;10.074;2023-04-15T02:45:45;7.60;99.90
2465;DHT22;1244;54.326;10.074;2023-04-15T02:48:11;7.60;99.90
2465;DHT22;1244;54.326;10.074;2023-04-15T02:50:37;7.60;99.90
2465;DHT22;1244;54.326;10.074;2023-04-15T02:53:05;7.60;99.90
2465;DHT22;1244;54.326;10.074;2023-04-15T02:55:31;7.60;99.90
2465;DHT22;1244;54.326;10.074;2023-04-15T02:57:56;7.60;99.90
2465;DHT22;1244;54.326;10.074;2023-04-15T03:00:24;7.60;99.90
2465;DHT22;1244;54.326;10.074;2023-04-15T03:02:50;7.60;99.90
2465;DHT22;1244;54.326;10.074;2023-04-15T03:05:21;7.60;99.90
2465;DHT22;1244;54.326;10.074;2023-04-15T03:07:49;7.50;99.90
2465;DHT22;1244;54.326;10.074;2023-04-15T03:10:14;7.60;99.90
2465;DHT22;1244;54.326;10.074;2023-04-15T03:12:40;7.60;99.90
2465;DHT22;1244;54.326;10.074;2023-04-15T03:15:06;7.60;99.90
2465;DHT22;1244;54.326;10.074;2023-04-15T03:17:32;7.60;99.90
2465;DHT22;1244;54.326;10.074;2023-04-15T03:19:57;7.60;99.90
2465;DHT22;1244;54.326;10.074;2023-04-15T03:22:23;7.60;99.90
2465;DHT22;1244;54.326;10.074;2023-04-15T03:24:49;7.70;99.90
2465;DHT22;1244;54.326;10.074;2023-04-15T03:27:15;7.70;99.90
2465;DHT22;1244;54.326;10.074;2023-04-15T03:29:40;7.60;99.90
2465;DHT22;1244;54.326;10.074;2023-04-15T03:32:05;7.60;99.90
2465;DHT22;1244;54.326;10.074;2023-04-15T03:34:31;7.60;99.90
2465;DHT22;1244;54.326;10.074;2023-04-15T03:36:56;7.60;99.90
2465;DHT22;1244;54.326;10.074;2023-04-15T03:39:22;7.60;99.90
2465;DHT22;1244;54.326;10.074;2023-04-15T03:41:47;7.60;99.90
2465;DHT22;1244;54.326;10.074;2023-04-15T03:44:13;7.60;99.90
2465;DHT22;1244;54.326;10.074;2023-04-15T03:46:38;7.60;99.90
2465;DHT22;1244;54.326;10.074;2023-04-15T03:49:06;7.60;99.90
2465;DHT22;1244;54.326;10.074;2023-04-15T03:51:31;7.60;99.90
2465;DHT22;1244;54.326;10.074;2023-04-15T03:53:57;7.60;99.90
2465;DHT22;1244;54.326;10.074;2023-04-15T03:56:23;7.60;99.90
2465;DHT22;1244;54.326;10.074;2023-04-15T03:58:48;7.70;99.90
2465;DHT22;1244;54.326;10.074;2023-04-15T04:01:14;7.70;99.90
2465;DHT22;1244;54.326;10.074;2023-04-15T04:03:40;7.60;99.90
2465;DHT22;1244;54.326;10.074;2023-04-15T04:06:06;7.80;99.90
2465;DHT22;1244;54.326;10.074;2023-04-15T04:08:32;7.70;99.90
2465;DHT22;1244;54.326;10.074;2023-04-15T04:10:58;7.70;99.90
2465;DHT22;1244;54.326;10.074;2023-04-15T04:13:23;7.70;99.90
2465;DHT22;1244;54.326;10.074;2023-04-15T04:15:49;7.70;99.90
2465;DHT22;1244;54.326;10.074;2023-04-15T04:18:14;7.70;99.90
2465;DHT22;1244;54.326;10.074;2023-04-15T04:20:40;7.70;99.90
2465;DHT22;1244;54.326;10.074;2023-04-15T04:23:06;7.70;99.90
2465;DHT22;1244;54.326;10.074;2023-04-15T04:25:31;7.60;99.90
2465;DHT22;1244;54.326;10.074;2023-04-15T04:27:57;7.70;99.90
2465;DHT22;1244;54.326;10.074;2023-04-15T04:30:23;7.70;99.90
2465;DHT22;1244;54.326;10.074;2023-04-15T04:32:49;7.70;99.90
2465;DHT22;1244;54.326;10.074;2023-04-15T04:35:15;7.70;99.90
2465;DHT22;1244;54.326;10.074;2023-04-15T04:37:40;7.70;99.90
2465;DHT22;1244;54.326;10.074;2023-04-15T04:40:06;7.80;99.90
2465;DHT22;1244;54.326;10.074;2023-04-15T04:42:32;7.70;99.90
2465;DHT22;1244;54.326;10.074;2023-04-15T04:44:58;7.70;99.90
2465;DHT22;1244;54.326;10.074;2023-04-15T04:47:23;7.70;99.90
2465;DHT22;1244;54.326;10.074;2023-04-15T04:49:49;7.70;99.90
2465;DHT22;1244;54.326;10.074;2023-04-15T04:52:14;7.70;99.90
2465;DHT22;1244;54.326;10.074;2023-04-15T04:54:40;7.70;99.90
2465;DHT22;1244;54.326;10.074;2023-04-15T04:57:06;7.70;99.90
2465;DHT22;1244;54.326;10.074;2023-04-15T04:59:32;7.70;99.90
2465;DHT22;1244;54.326;10.074;2023-04-15T05:01:58;7.70;99.90
2465;DHT22;1244;54.326;10.074;2023-04-15T05:04:23;7.70;99.90
2465;DHT22;1244;54.326;10.074;2023-04-15T05:06:49;7.80;99.90
2465;DHT22;1244;54.326;10.074;2023-04-15T05:09:14;7.80;99.90
2465;DHT22;1244;54.326;10.074;2023-04-15T05:11:40;7.80;99.90
2465;DHT22;1244;54.326;10.074;2023-04-15T05:14:05;7.80;99.90
2465;DHT22;1244;54.326;10.074;2023-04-15T05:16:31;7.80;99.90
2465;DHT22;1244;54.326;10.074;2023-04-15T05:18:57;7.80;99.90
2465;DHT22;1244;54.326;10.074;2023-04-15T05:21:22;7.80;99.90
2465;DHT22;1244;54.326;10.074;2023-04-15T05:23:48;7.80;99.90
2465;DHT22;1244;54.326;10.074;2023-04-15T05:26:13;7.90;99.90
2465;DHT22;1244;54.326;10.074;2023-04-15T05:28:39;7.90;99.90
2465;DHT22;1244;54.326;10.074;2023-04-15T05:31:05;7.90;99.90
2465;DHT22;1244;54.326;10.074;2023-04-15T05:33:31;7.90;99.90
2465;DHT22;1244;54.326;10.074;2023-04-15T05:35:57;7.80;99.90
2465;DHT22;1244;54.326;10.074;2023-04-15T05:38:22;7.90;99.90
2465;DHT22;1244;54.326;10.074;2023-04-15T05:40:48;7.90;99.90
2465;DHT22;1244;54.326;10.074;2023-04-15T05:43:13;7.90;99.90
2465;DHT22;1244;54.326;10.074;2023-04-15T05:45:39;7.90;99.90
2465;DHT22;1244;54.326;10.074;2023-04-15T05:48:04;7.90;99.90
2465;DHT22;1244;54.326;10.074;2023-04-15T05:50:30;8.00;99.90
2465;DHT22;1244;54.326;10.074;2023-04-15T05:52:56;7.90;99.90
2465;DHT22;1244;54.326;10.074;2023-04-15T05:55:21;8.00;99.90
2465;DHT22;1244;54.326;10.074;2023-04-15T05:57:47;7.90;99.90
2465;DHT22;1244;54.326;10.074;2023-04-15T06:00:13;7.90;99.90
2465;DHT22;1244;54.326;10.074;2023-04-15T06:02:39;8.00;99.90
2465;DHT22;1244;54.326;10.074;2023-04-15T06:05:05;7.90;99.90
2465;DHT22;1244;54.326;10.074;2023-04-15T06:07:34;8.00;99.90
2465;DHT22;1244;54.326;10.074;2023-04-15T06:10:01;8.10;99.90
2465;DHT22;1244;54.326;10.074;2023-04-15T06:12:27;8.00;99.90
2465;DHT22;1244;54.326;10.074;2023-04-15T06:14:53;8.00;99.90
2465;DHT22;1244;54.326;10.074;2023-04-15T06:17:18;8.10;99.90
2465;DHT22;1244;54.326;10.074;2023-04-15T06:19:44;8.10;99.90
2465;DHT22;1244;54.326;10.074;2023-04-15T06:22:09;8.20;99.90
2465;DHT22;1244;54.326;10.074;2023-04-15T06:24:35;8.20;99.90
2465;DHT22;1244;54.326;10.074;2023-04-15T06:27:01;8.20;99.90
2465;DHT22;1244;54.326;10.074;2023-04-15T06:29:27;8.20;99.90
2465;DHT22;1244;54.326;10.074;2023-04-15T06:31:53;8.30;99.90
2465;DHT22;1244;54.326;10.074;2023-04-15T06:34:19;8.30;99.90
2465;DHT22;1244;54.326;10.074;2023-04-15T06:36:44;8.30;99.90
2465;DHT22;1244;54.326;10.074;2023-04-15T06:39:10;8.30;99.90
2465;DHT22;1244;54.326;10.074;2023-04-15T06:41:35;8.30;99.90
2465;DHT22;1244;54.326;10.074;2023-04-15T06:44:01;8.30;99.90
2465;DHT22;1244;54.326;10.074;2023-04-15T06:46:27;8.30;99.90
2465;DHT22;1244;54.326;10.074;2023-04-15T06:48:52;8.30;99.90
2465;DHT22;1244;54.326;10.074;2023-04-15T06:51:18;8.30;99.90
2465;DHT22;1244;54.326;10.074;2023-04-15T06:53:43;8.30;99.90
2465;DHT22;1244;54.326;10.074;2023-04-15T06:56:09;8.30;99.90
2465;DHT22;1244;54.326;10.074;2023-04-15T06:58:35;8.20;99.90
2465;DHT22;1244;54.326;10.074;2023-04-15T07:01:01;8.20;99.90
2465;DHT22;1244;54.326;10.074;2023-04-15T07:03:26;8.30;99.90
2465;DHT22;1244;54.326;10.074;2023-04-15T07:05:52;8.30;99.90
2465;DHT22;1244;54.326;10.074;2023-04-15T07:08:18;8.30;99.90
2465;DHT22;1244;54.326;10.074;2023-04-15T07:10:44;8.30;99.90
2465;DHT22;1244;54.326;10.074;2023-04-15T07:13:10;8.40;99.90
2465;DHT22;1244;54.326;10.074;2023-04-15T07:15:36;8.40;99.90
2465;DHT22;1244;54.326;10.074;2023-04-15T07:18:01;8.40;99.90
2465;DHT22;1244;54.326;10.074;2023-04-15T07:20:27;8.50;99.90
2465;DHT22;1244;54.326;10.074;2023-04-15T07:22:52;8.50;99.90
2465;DHT22;1244;54.326;10.074;2023-04-15T07:25:18;8.50;99.90
2465;DHT22;1244;54.326;10.074;2023-04-15T07:27:43;8.50;99.90
2465;DHT22;1244;54.326;10.074;2023-04-15T07:30:10;8.50;99.90
2465;DHT22;1244;54.326;10.074;2023-04-15T07:32:35;8.60;99.90
2465;DHT22;1244;54.326;10.074;2023-04-15T07:35:01;8.60;99.90
2465;DHT22;1244;54.326;10.074;2023-04-15T07:37:28;8.50;99.90
2465;DHT22;1244;54.326;10.074;2023-04-15T07:39:54;8.40;99.90
2465;DHT22;1244;54.326;10.074;2023-04-15T07:42:19;8.50;99.90
2465;DHT22;1244;54.326;10.074;2023-04-15T07:44:45;8.50;99.90
2465;DHT22;1244;54.326;10.074;2023-04-15T07:47:11;8.60;99.90
2465;DHT22;1244;54.326;10.074;2023-04-15T07:49:36;8.50;99.90
2465;DHT22;1244;54.326;10.074;2023-04-15T07:52:02;8.50;99.90
2465;DHT22;1244;54.326;10.074;2023-04-15T07:54:28;8.60;99.90
2465;DHT22;1244;54.326;10.074;2023-04-15T07:56:53;8.60;99.90
2465;DHT22;1244;54.326;10.074;2023-04-15T07:59:19;8.60;99.90
2465;DHT22;1244;54.326;10.074;2023-04-15T08:01:46;8.70;99.90
2465;DHT22;1244;54.326;10.074;2023-04-15T08:04:11;8.70;99.90
2465;DHT22;1244;54.326;10.074;2023-04-15T08:06:37;8.80;99.90
2465;DHT22;1244;54.326;10.074;2023-04-15T08:09:04;8.90;99.90
2465;DHT22;1244;54.326;10.074;2023-04-15T08:11:30;9.00;99.90
2465;DHT22;1244;54.326;10.074;2023-04-15T08:13:56;9.10;99.90
2465;DHT22;1244;54.326;10.074;2023-04-15T08:16:23;9.20;99.90
2465;DHT22;1244;54.326;10.074;2023-04-15T08:18:50;9.10;99.90
2465;DHT22;1244;54.326;10.074;2023-04-15T08:21:17;9.10;99.90
2465;DHT22;1244;54.326;10.074;2023-04-15T08:23:44;9.20;99.90
2465;DHT22;1244;54.326;10.074;2023-04-15T08:26:10;9.20;99.90
2465;DHT22;1244;54.326;10.074;2023-04-15T08:28:38;9.30;99.90
2465;DHT22;1244;54.326;10.074;2023-04-15T08:31:04;9.40;99.90
2465;DHT22;1244;54.326;10.074;2023-04-15T08:33:29;9.40;99.90
2465;DHT22;1244;54.326;10.074;2023-04-15T08:35:55;9.30;99.90
2465;DHT22;1244;54.326;10.074;2023-04-15T08:38:21;9.30;99.90
2465;DHT22;1244;54.326;10.074;2023-04-15T08:40:47;9.20;99.90
2465;DHT22;1244;54.326;10.074;2023-04-15T08:43:19;9.10;99.90
2465;DHT22;1244;54.326;10.074;2023-04-15T08:45:47;9.00;99.90
2465;DHT22;1244;54.326;10.074;2023-04-15T08:48:16;8.90;99.90
2465;DHT22;1244;54.326;10.074;2023-04-15T08:50:42;8.80;99.90
2465;DHT22;1244;54.326;10.074;2023-04-15T08:53:09;8.80;99.90
2465;DHT22;1244;54.326;10.074;2023-04-15T08:55:36;8.80;99.90
2465;DHT22;1244;54.326;10.074;2023-04-15T08:58:04;8.80;99.90
2465;DHT22;1244;54.326;10.074;2023-04-15T09:00:31;8.80;99.90
2465;DHT22;1244;54.326;10.074;2023-04-15T09:02:58;8.80;99.90
2465;DHT22;1244;54.326;10.074;2023-04-15T09:05:23;8.90;99.90
2465;DHT22;1244;54.326;10.074;2023-04-15T09:07:52;9.00;99.90
2465;DHT22;1244;54.326;10.074;2023-04-15T09:10:17;9.00;99.90
2465;DHT22;1244;54.326;10.074;2023-04-15T09:12:43;9.20;99.90
2465;DHT22;1244;54.326;10.074;2023-04-15T09:15:10;9.20;99.90
2465;DHT22;1244;54.326;10.074;2023-04-15T09:17:41;9.30;99.90
2465;DHT22;1244;54.326;10.074;2023-04-15T09:22:35;9.60;99.90
2465;DHT22;1244;54.326;10.074;2023-04-15T09:25:01;10.00;99.90
2465;DHT22;1244;54.326;10.074;2023-04-15T09:27:27;10.30;99.90
2465;DHT22;1244;54.326;10.074;2023-04-15T09:29:53;10.40;99.90
2465;DHT22;1244;54.326;10.074;2023-04-15T09:32:18;10.50;99.90
2465;DHT22;1244;54.326;10.074;2023-04-15T09:34:45;11.00;99.90
2465;DHT22;1244;54.326;10.074;2023-04-15T09:37:12;11.20;99.90
2465;DHT22;1244;54.326;10.074;2023-04-15T09:39:51;11.30;99.90
2465;DHT22;1244;54.326;10.074;2023-04-15T09:42:17;11.50;99.90
2465;DHT22;1244;54.326;10.074;2023-04-15T09:44:49;11.40;99.90
2465;DHT22;1244;54.326;10.074;2023-04-15T09:47:31;11.70;99.90
2465;DHT22;1244;54.326;10.074;2023-04-15T09:49:58;11.90;99.90
2465;DHT22;1244;54.326;10.074;2023-04-15T09:52:24;12.30;99.90
2465;DHT22;1244;54.326;10.074;2023-04-15T09:54:52;12.20;99.90
2465;DHT22;1244;54.326;10.074;2023-04-15T09:57:19;12.20;99.90
2465;DHT22;1244;54.326;10.074;2023-04-15T09:59:46;12.20;99.90
2465;DHT22;1244;54.326;10.074;2023-04-15T10:02:12;12.30;99.90
2465;DHT22;1244;54.326;10.074;2023-04-15T10:04:40;12.30;99.90
2465;DHT22;1244;54.326;10.074;2023-04-15T10:07:07;12.40;99.90
2465;DHT22;1244;54.326;10.074;2023-04-15T10:09:35;12.40;99.90
2465;DHT22;1244;54.326;10.074;2023-04-15T10:12:02;12.20;99.90
2465;DHT22;1244;54.326;10.074;2023-04-15T10:14:32;12.20;99.90
2465;DHT22;1244;54.326;10.074;2023-04-15T10:17:01;12.20;99.90
2465;DHT22;1244;54.326;10.074;2023-04-15T10:19:30;12.00;99.90
2465;DHT22;1244;54.326;10.074;2023-04-15T10:21:56;11.90;99.90
2465;DHT22;1244;54.326;10.074;2023-04-15T10:24:23;12.00;99.90
2465;DHT22;1244;54.326;10.074;2023-04-15T10:26:50;12.10;99.90
2465;DHT22;1244;54.326;10.074;2023-04-15T10:29:16;12.30;99.90
2465;DHT22;1244;54.326;10.074;2023-04-15T10:31:42;12.60;99.90
2465;DHT22;1244;54.326;10.074;2023-04-15T10:34:09;12.60;99.90
2465;DHT22;1244;54.326;10.074;2023-04-15T10:36:35;12.60;99.90
2465;DHT22;1244;54.326;10.074;2023-04-15T10:39:01;12.90;99.90
2465;DHT22;1244;54.326;10.074;2023-04-15T10:41:27;13.00;99.90
2465;DHT22;1244;54.326;10.074;2023-04-15T10:46:43;13.20;99.90
2465;DHT22;1244;54.326;10.074;2023-04-15T10:49:13;13.10;99.90
2465;DHT22;1244;54.326;10.074;2023-04-15T10:51:45;14.10;99.90
2465;DHT22;1244;54.326;10.074;2023-04-15T10:54:16;14.40;99.90
2465;DHT22;1244;54.326;10.074;2023-04-15T10:59:37;13.70;99.90
2465;DHT22;1244;54.326;10.074;2023-04-15T11:02:05;13.50;99.90
2465;DHT22;1244;54.326;10.074;2023-04-15T11:04:56;13.50;99.90
2465;DHT22;1244;54.326;10.074;2023-04-15T11:07:46;14.00;99.90
2465;DHT22;1244;54.326;10.074;2023-04-15T11:12:39;14.60;99.90
2465;DHT22;1244;54.326;10.074;2023-04-15T11:15:28;14.80;99.90
2465;DHT22;1244;54.326;10.074;2023-04-15T11:18:08;14.70;99.90
2465;DHT22;1244;54.326;10.074;2023-04-15T11:20:35;14.70;99.90
2465;DHT22;1244;54.326;10.074;2023-04-15T11:23:00;14.70;99.90
2465;DHT22;1244;54.326;10.074;2023-04-15T11:25:27;15.00;99.90
2465;DHT22;1244;54.326;10.074;2023-04-15T11:27:54;15.30;99.90
2465;DHT22;1244;54.326;10.074;2023-04-15T11:30:22;15.20;99.90
2465;DHT22;1244;54.326;10.074;2023-04-15T11:32:48;14.90;99.90
2465;DHT22;1244;54.326;10.074;2023-04-15T11:35:16;14.70;99.90
2465;DHT22;1244;54.326;10.074;2023-04-15T11:37:43;15.80;99.90
2465;DHT22;1244;54.326;10.074;2023-04-15T11:40:09;15.70;99.90
2465;DHT22;1244;54.326;10.074;2023-04-15T11:42:35;15.30;99.90
2465;DHT22;1244;54.326;10.074;2023-04-15T11:45:11;15.70;99.90
2465;DHT22;1244;54.326;10.074;2023-04-15T11:47:38;15.40;99.90
2465;DHT22;1244;54.326;10.074;2023-04-15T11:50:20;16.20;99.90
2465;DHT22;1244;54.326;10.074;2023-04-15T11:52:54;15.50;99.90
2465;DHT22;1244;54.326;10.074;2023-04-15T11:55:20;15.80;99.90
2465;DHT22;1244;54.326;10.074;2023-04-15T12:00:12;16.70;99.90
2465;DHT22;1244;54.326;10.074;2023-04-15T12:02:38;17.30;99.90
2465;DHT22;1244;54.326;10.074;2023-04-15T12:05:05;17.90;99.90
2465;DHT22;1244;54.326;10.074;2023-04-15T12:07:31;18.10;99.90
2465;DHT22;1244;54.326;10.074;2023-04-15T12:09:57;18.10;99.90
2465;DHT22;1244;54.326;10.074;2023-04-15T12:12:26;18.00;99.90
2465;DHT22;1244;54.326;10.074;2023-04-15T12:14:55;18.20;99.90
2465;DHT22;1244;54.326;10.074;2023-04-15T12:17:24;18.50;99.90
2465;DHT22;1244;54.326;10.074;2023-04-15T12:19:55;18.10;99.90
2465;DHT22;1244;54.326;10.074;2023-04-15T12:22:21;17.30;99.90
2465;DHT22;1244;54.326;10.074;2023-04-15T12:24:53;17.30;99.90
2465;DHT22;1244;54.326;10.074;2023-04-15T12:27:25;17.60;99.90
2465;DHT22;1244;54.326;10.074;2023-04-15T12:30:05;18.20;99.90
2465;DHT22;1244;54.326;10.074;2023-04-15T12:32:34;18.40;99.90
2465;DHT22;1244;54.326;10.074;2023-04-15T12:35:00;18.40;99.90
2465;DHT22;1244;54.326;10.074;2023-04-15T12:37:25;18.90;99.90
2465;DHT22;1244;54.326;10.074;2023-04-15T12:39:51;19.10;99.90
2465;DHT22;1244;54.326;10.074;2023-04-15T12:42:18;18.70;99.90
2465;DHT22;1244;54.326;10.074;2023-04-15T12:44:45;19.10;99.90
2465;DHT22;1244;54.326;10.074;2023-04-15T12:47:13;19.40;99.90
2465;DHT22;1244;54.326;10.074;2023-04-15T12:49:39;19.80;99.90
2465;DHT22;1244;54.326;10.074;2023-04-15T12:52:05;19.60;99.90
2465;DHT22;1244;54.326;10.074;2023-04-15T12:54:31;19.80;99.90
2465;DHT22;1244;54.326;10.074;2023-04-15T12:56:57;20.10;99.90
2465;DHT22;1244;54.326;10.074;2023-04-15T12:59:23;20.20;99.90
2465;DHT22;1244;54.326;10.074;2023-04-15T13:01:49;20.60;99.90
2465;DHT22;1244;54.326;10.074;2023-04-15T13:04:16;20.70;99.90
2465;DHT22;1244;54.326;10.074;2023-04-15T13:06:42;20.30;99.90
2465;DHT22;1244;54.326;10.074;2023-04-15T13:09:08;19.90;99.90
2465;DHT22;1244;54.326;10.074;2023-04-15T13:11:33;19.90;99.90
2465;DHT22;1244;54.326;10.074;2023-04-15T13:14:04;20.30;99.90
2465;DHT22;1244;54.326;10.074;2023-04-15T13:16:30;20.70;99.90
2465;DHT22;1244;54.326;10.074;2023-04-15T13:18:57;20.60;99.90
2465;DHT22;1244;54.326;10.074;2023-04-15T13:21:23;21.30;99.90
2465;DHT22;1244;54.326;10.074;2023-04-15T13:23:49;21.10;99.90
2465;DHT22;1244;54.326;10.074;2023-04-15T13:26:17;20.70;99.90
2465;DHT22;1244;54.326;10.074;2023-04-15T13:28:43;20.30;99.90
2465;DHT22;1244;54.326;10.074;2023-04-15T13:31:09;20.40;99.90
2465;DHT22;1244;54.326;10.074;2023-04-15T13:33:37;20.40;99.90
2465;DHT22;1244;54.326;10.074;2023-04-15T13:36:03;20.80;99.90
2465;DHT22;1244;54.326;10.074;2023-04-15T13:38:28;21.10;99.90
2465;DHT22;1244;54.326;10.074;2023-04-15T13:40:54;21.20;99.90
2465;DHT22;1244;54.326;10.074;2023-04-15T13:43:19;20.90;99.90
2465;DHT22;1244;54.326;10.074;2023-04-15T13:45:46;21.60;99.90
2465;DHT22;1244;54.326;10.074;2023-04-15T13:48:11;21.70;99.90
2465;DHT22;1244;54.326;10.074;2023-04-15T13:50:37;20.90;99.90
2465;DHT22;1244;54.326;10.074;2023-04-15T13:53:02;20.20;99.90
2465;DHT22;1244;54.326;10.074;2023-04-15T13:55:28;20.50;99.90
2465;DHT22;1244;54.326;10.074;2023-04-15T13:57:59;20.60;99.90
2465;DHT22;1244;54.326;10.074;2023-04-15T14:00:25;20.90;99.90
2465;DHT22;1244;54.326;10.074;2023-04-15T14:02:50;20.80;99.90
2465;DHT22;1244;54.326;10.074;2023-04-15T14:05:16;20.80;99.90
2465;DHT22;1244;54.326;10.074;2023-04-15T14:07:42;20.50;99.90
2465;DHT22;1244;54.326;10.074;2023-04-15T14:10:07;20.40;99.90
2465;DHT22;1244;54.326;10.074;2023-04-15T14:12:33;19.20;99.90
2465;DHT22;1244;54.326;10.074;2023-04-15T14:14:58;17.80;99.90
2465;DHT22;1244;54.326;10.074;2023-04-15T14:17:24;17.20;99.90
2465;DHT22;1244;54.326;10.074;2023-04-15T14:19:50;16.60;99.90
2465;DHT22;1244;54.326;10.074;2023-04-15T14:22:15;16.20;99.90
2465;DHT22;1244;54.326;10.074;2023-04-15T14:24:42;15.50;99.90
2465;DHT22;1244;54.326;10.074;2023-04-15T14:27:08;15.40;99.90
2465;DHT22;1244;54.326;10.074;2023-04-15T14:29:35;15.10;99.90
2465;DHT22;1244;54.326;10.074;2023-04-15T14:32:01;15.20;99.90
2465;DHT22;1244;54.326;10.074;2023-04-15T14:34:26;15.60;99.90
2465;DHT22;1244;54.326;10.074;2023-04-15T14:36:52;15.50;99.90
2465;DHT22;1244;54.326;10.074;2023-04-15T14:39:18;15.30;99.90
2465;DHT22;1244;54.326;10.074;2023-04-15T14:41:44;15.20;99.90
2465;DHT22;1244;54.326;10.074;2023-04-15T14:44:10;15.10;99.90
2465;DHT22;1244;54.326;10.074;2023-04-15T14:46:37;15.10;99.90
2465;DHT22;1244;54.326;10.074;2023-04-15T14:49:03;15.10;99.90
2465;DHT22;1244;54.326;10.074;2023-04-15T14:51:28;14.70;99.90
2465;DHT22;1244;54.326;10.074;2023-04-15T14:53:54;14.70;99.90
2465;DHT22;1244;54.326;10.074;2023-04-15T14:56:20;14.70;99.90
2465;DHT22;1244;54.326;10.074;2023-04-15T14:58:45;14.60;99.90
2465;DHT22;1244;54.326;10.074;2023-04-15T15:01:12;14.90;99.90
2465;DHT22;1244;54.326;10.074;2023-04-15T15:03:38;14.70;99.90
2465;DHT22;1244;54.326;10.074;2023-04-15T15:06:03;14.80;99.90
2465;DHT22;1244;54.326;10.074;2023-04-15T15:08:29;14.40;99.90
2465;DHT22;1244;54.326;10.074;2023-04-15T15:10:55;14.30;99.90
2465;DHT22;1244;54.326;10.074;2023-04-15T15:13:20;14.10;99.90
2465;DHT22;1244;54.326;10.074;2023-04-15T15:15:46;14.20;99.90
2465;DHT22;1244;54.326;10.074;2023-04-15T15:18:14;13.80;99.90
2465;DHT22;1244;54.326;10.074;2023-04-15T15:20:40;13.90;99.90
2465;DHT22;1244;54.326;10.074;2023-04-15T15:23:05;13.70;99.90
2465;DHT22;1244;54.326;10.074;2023-04-15T15:25:31;13.80;99.90
2465;DHT22;1244;54.326;10.074;2023-04-15T15:27:57;13.80;99.90
2465;DHT22;1244;54.326;10.074;2023-04-15T15:30:23;13.60;99.90
2465;DHT22;1244;54.326;10.074;2023-04-15T15:32:50;13.70;99.90
2465;DHT22;1244;54.326;10.074;2023-04-15T15:35:16;13.60;99.90
2465;DHT22;1244;54.326;10.074;2023-04-15T15:37:42;13.80;99.90
2465;DHT22;1244;54.326;10.074;2023-04-15T15:40:08;13.50;99.90
2465;DHT22;1244;54.326;10.074;2023-04-15T15:42:34;13.50;99.90
2465;DHT22;1244;54.326;10.074;2023-04-15T15:45:01;13.50;99.90
2465;DHT22;1244;54.326;10.074;2023-04-15T15:47:27;13.50;99.90
2465;DHT22;1244;54.326;10.074;2023-04-15T15:49:53;13.50;99.90
2465;DHT22;1244;54.326;10.074;2023-04-15T15:52:19;13.40;99.90
2465;DHT22;1244;54.326;10.074;2023-04-15T15:54:45;13.40;99.90
2465;DHT22;1244;54.326;10.074;2023-04-15T15:57:11;13.10;99.90
2465;DHT22;1244;54.326;10.074;2023-04-15T15:59:37;13.30;99.90
2465;DHT22;1244;54.326;10.074;2023-04-15T16:02:07;13.30;99.90
2465;DHT22;1244;54.326;10.074;2023-04-15T16:04:37;13.00;99.90